createdAt,value
2019-05-18T00:02:23.162Z,11.69
2019-05-18T00:04:53.596Z,11.63
2019-05-18T00:07:24.009Z,11.37
2019-05-18T00:09:54.456Z,11.09
2019-05-18T00:12:24.890Z,10.96
2019-05-18T00:14:55.293Z,10.96
2019-05-18T00:17:25.745Z,10.89
2019-05-18T00:19:56.159Z,10.78
2019-05-18T00:22:26.601Z,10.66
2019-05-18T00:24:56.990Z,10.44
2019-05-18T00:27:27.396Z,10.35
2019-05-18T00:29:57.807Z,10.42
2019-05-18T00:32:28.273Z,10.49
2019-05-18T00:34:58.702Z,10.49
2019-05-18T00:37:29.123Z,10.37
2019-05-18T00:39:59.549Z,10.26
2019-05-18T00:42:29.801Z,10.24
2019-05-18T00:45:00.217Z,10.30
2019-05-18T00:47:40.935Z,10.34
2019-05-18T00:50:02.775Z,10.38
2019-05-18T00:52:33.158Z,10.27
2019-05-18T00:55:03.571Z,10.34
2019-05-18T00:57:33.874Z,10.35
2019-05-18T01:00:05.169Z,10.32
2019-05-18T01:02:35.625Z,10.19
2019-05-18T01:05:06.481Z,9.99
2019-05-18T01:07:36.822Z,9.79
2019-05-18T01:10:07.858Z,9.80
2019-05-18T01:12:38.277Z,9.94
2019-05-18T01:15:09.749Z,10.03
2019-05-18T01:17:40.151Z,10.12
2019-05-18T01:20:10.846Z,9.93
2019-05-18T01:22:41.308Z,9.77
2019-05-18T01:25:12.078Z,9.68
2019-05-18T01:27:42.504Z,9.60
2019-05-18T01:30:13.596Z,9.62
2019-05-18T01:32:44.006Z,9.76
2019-05-18T01:35:14.477Z,9.82
2019-05-18T01:37:44.926Z,9.57
2019-05-18T01:40:16.206Z,9.50
2019-05-18T01:42:46.655Z,9.47
2019-05-18T01:45:18.029Z,9.47
2019-05-18T01:47:48.435Z,9.41
2019-05-18T01:50:18.960Z,9.30
2019-05-18T01:52:49.445Z,9.24
2019-05-18T01:55:19.913Z,9.27
2019-05-18T01:57:50.306Z,9.19
2019-05-18T02:00:20.909Z,9.20
2019-05-18T02:02:51.217Z,9.11
2019-05-18T02:05:21.667Z,9.10
2019-05-18T02:07:52.098Z,9.16
2019-05-18T02:10:22.535Z,9.05
2019-05-18T02:12:52.791Z,9.02
2019-05-18T02:15:23.205Z,9.04
2019-05-18T02:17:53.638Z,9.07
2019-05-18T02:20:23.984Z,9.04
2019-05-18T02:22:54.447Z,8.93
2019-05-18T02:25:24.736Z,8.88
2019-05-18T02:27:55.237Z,8.73
2019-05-18T02:30:25.561Z,8.70
2019-05-18T02:32:55.994Z,8.65
2019-05-18T02:35:26.394Z,8.68
2019-05-18T02:38:13.520Z,8.57
2019-05-18T02:40:44.249Z,8.55
2019-05-18T02:43:14.628Z,8.54
2019-05-18T02:45:45.134Z,8.54
2019-05-18T02:48:15.478Z,8.60
2019-05-18T02:50:45.937Z,8.48
2019-05-18T02:53:16.358Z,8.36
2019-05-18T02:55:46.760Z,8.42
2019-05-18T02:58:17.189Z,8.55
2019-05-18T03:00:47.846Z,8.63
2019-05-18T03:03:18.236Z,8.70
2019-05-18T03:05:48.671Z,8.69
2019-05-18T03:08:18.958Z,8.63
2019-05-18T03:10:49.272Z,8.51
2019-05-18T03:13:19.729Z,8.33
2019-05-18T03:15:50.116Z,8.24
2019-05-18T03:18:20.399Z,8.18
2019-05-18T03:20:50.704Z,8.00
2019-05-18T03:23:21.021Z,7.92
2019-05-18T03:25:51.288Z,7.90
2019-05-18T03:28:21.644Z,7.75
2019-05-18T03:30:51.977Z,7.80
2019-05-18T03:33:28.596Z,7.81
2019-05-18T03:35:54.529Z,7.86
2019-05-18T03:38:24.942Z,7.86
2019-05-18T03:40:55.354Z,7.76
2019-05-18T03:43:25.776Z,7.85
2019-05-18T03:45:56.534Z,8.00
2019-05-18T03:48:26.956Z,8.15
2019-05-18T03:50:57.368Z,8.27
2019-05-18T03:53:27.817Z,8.36
2019-05-18T03:55:58.245Z,8.34
2019-05-18T03:58:28.698Z,8.37
2019-05-18T04:00:59.015Z,8.42
2019-05-18T04:03:29.332Z,8.30
2019-05-18T04:05:59.638Z,8.38
2019-05-18T04:08:30.043Z,8.51
2019-05-18T04:11:00.404Z,8.59
2019-05-18T04:13:30.707Z,8.54
2019-05-18T04:16:00.955Z,8.63
2019-05-18T04:18:31.388Z,8.64
2019-05-18T04:21:07.237Z,8.70
2019-05-18T04:23:37.709Z,8.74
2019-05-18T04:26:08.060Z,8.79
2019-05-18T04:28:38.438Z,8.84
2019-05-18T04:31:08.932Z,8.85
2019-05-18T04:33:39.229Z,8.87
2019-05-18T04:36:09.814Z,8.73
2019-05-18T04:38:40.219Z,8.75
2019-05-18T04:41:10.653Z,8.67
2019-05-18T04:43:41.097Z,8.64
2019-05-18T04:46:11.496Z,8.64
2019-05-18T04:48:41.987Z,8.63
2019-05-18T04:51:12.362Z,8.67
2019-05-18T04:53:42.722Z,8.63
2019-05-18T04:56:13.075Z,8.80
2019-05-18T04:58:43.555Z,8.95
2019-05-18T05:01:14.015Z,9.10
2019-05-18T05:03:44.505Z,9.24
2019-05-18T05:06:15.012Z,9.31
2019-05-18T05:08:45.422Z,9.39
2019-05-18T05:11:15.870Z,9.51
2019-05-18T05:13:46.209Z,9.64
2019-05-18T05:16:16.667Z,9.73
2019-05-18T05:18:47.035Z,9.75
2019-05-18T05:21:17.521Z,9.88
2019-05-18T05:23:47.926Z,10.07
2019-05-18T05:26:18.325Z,10.18
2019-05-18T05:28:48.812Z,10.22
2019-05-18T05:31:19.259Z,10.37
2019-05-18T05:33:49.628Z,10.56
2019-05-18T05:36:19.934Z,10.76
2019-05-18T05:38:50.383Z,10.97
2019-05-18T05:41:20.708Z,11.18
2019-05-18T05:43:51.025Z,11.37
2019-05-18T05:46:21.447Z,11.48
2019-05-18T05:48:51.842Z,11.52
2019-05-18T05:51:22.178Z,11.61
2019-05-18T05:53:52.572Z,11.69
2019-05-18T05:56:22.993Z,11.64
2019-05-18T05:58:53.284Z,11.70
2019-05-18T06:01:23.780Z,11.70
2019-05-18T06:03:54.251Z,11.73
2019-05-18T06:06:24.699Z,11.95
2019-05-18T06:08:55.092Z,12.21
2019-05-18T06:11:25.478Z,12.52
2019-05-18T06:13:55.950Z,12.83
2019-05-18T06:16:26.376Z,13.15
2019-05-18T06:18:56.830Z,13.30
2019-05-18T06:21:27.173Z,13.51
2019-05-18T06:23:57.614Z,13.67
2019-05-18T06:26:28.063Z,13.86
2019-05-18T06:28:58.547Z,14.07
2019-05-18T06:31:29.028Z,14.18
2019-05-18T06:33:59.516Z,14.29
2019-05-18T06:36:30.005Z,14.31
2019-05-18T06:39:00.413Z,14.49
2019-05-18T06:41:30.669Z,14.46
2019-05-18T06:44:01.167Z,14.53
2019-05-18T06:46:31.463Z,14.54
2019-05-18T06:49:01.885Z,14.63
2019-05-18T06:51:32.293Z,14.84
2019-05-18T06:54:02.850Z,15.11
2019-05-18T06:56:35.044Z,15.40
2019-05-18T06:59:05.458Z,15.47
2019-05-18T07:01:35.890Z,15.57
2019-05-18T07:04:06.338Z,15.71
2019-05-18T07:06:36.648Z,15.82
2019-05-18T07:09:13.617Z,16.03
2019-05-18T07:11:40.331Z,16.25
2019-05-18T07:14:23.568Z,16.43
2019-05-18T07:16:42.934Z,16.44
2019-05-18T07:19:13.505Z,16.49
2019-05-18T07:21:43.819Z,16.52
2019-05-18T07:24:14.248Z,16.70
2019-05-18T07:26:44.579Z,16.92
2019-05-18T07:29:15.084Z,17.12
2019-05-18T07:31:45.418Z,17.30
2019-05-18T07:34:15.961Z,17.57
2019-05-18T07:36:46.412Z,17.80
2019-05-18T07:39:16.714Z,18.14
2019-05-18T07:41:47.399Z,18.50
2019-05-18T07:44:17.857Z,18.61
2019-05-18T07:46:48.272Z,18.86
2019-05-18T07:49:18.662Z,18.98
2019-05-18T07:51:49.164Z,19.16
2019-05-18T07:54:19.607Z,19.37
2019-05-18T07:56:50.000Z,19.50
2019-05-18T07:59:22.967Z,19.64
2019-05-18T08:01:52.663Z,19.83
2019-05-18T08:04:23.087Z,19.86
2019-05-18T08:06:53.521Z,20.08
2019-05-18T08:09:23.894Z,20.26
2019-05-18T08:12:13.389Z,20.37
2019-05-18T08:14:43.844Z,20.50
2019-05-18T08:17:14.146Z,20.75
2019-05-18T08:19:44.608Z,21.02
2019-05-18T08:22:14.944Z,21.24
2019-05-18T08:24:45.289Z,21.23
2019-05-18T08:27:15.776Z,21.33
2019-05-18T08:29:46.179Z,21.44
2019-05-18T08:32:16.708Z,21.68
2019-05-18T08:34:47.135Z,21.92
2019-05-18T08:37:17.570Z,21.90
2019-05-18T08:39:47.967Z,21.41
2019-05-18T08:42:18.422Z,21.63
2019-05-18T08:44:48.855Z,21.35
2019-05-18T08:47:19.305Z,21.75
2019-05-18T08:49:49.786Z,21.93
2019-05-18T08:52:20.739Z,21.85
2019-05-18T08:54:51.204Z,22.33
2019-05-18T08:57:21.691Z,22.29
2019-05-18T08:59:52.129Z,22.75
2019-05-18T09:02:22.535Z,23.06
2019-05-18T09:04:52.930Z,23.18
2019-05-18T09:07:23.378Z,22.63
2019-05-18T09:09:53.886Z,22.26
2019-05-18T09:12:24.182Z,22.33
2019-05-18T09:14:54.567Z,22.67
2019-05-18T09:17:24.924Z,22.95
2019-05-18T09:19:55.287Z,22.99
2019-05-18T09:22:25.657Z,23.16
2019-05-18T09:24:56.099Z,23.39
2019-05-18T09:27:26.550Z,23.15
2019-05-18T09:29:56.961Z,23.31
2019-05-18T09:32:27.398Z,22.75
2019-05-18T09:34:57.802Z,22.57
2019-05-18T09:37:28.268Z,22.93
2019-05-18T09:39:58.619Z,23.35
2019-05-18T09:42:29.174Z,23.73
2019-05-18T09:44:59.504Z,23.50
2019-05-18T09:47:29.964Z,23.41
2019-05-18T09:50:00.443Z,23.27
2019-05-18T09:52:44.395Z,23.61
2019-05-18T09:55:03.053Z,23.98
2019-05-18T09:57:33.343Z,23.91
2019-05-18T10:00:04.024Z,24.07
2019-05-18T10:02:34.423Z,24.18
2019-05-18T10:05:05.066Z,24.56
2019-05-18T10:07:35.505Z,24.70
2019-05-18T10:10:06.429Z,24.40
2019-05-18T10:12:36.880Z,24.34
2019-05-18T10:15:07.827Z,24.63
2019-05-18T10:17:38.312Z,24.73
2019-05-18T10:20:09.622Z,24.06
2019-05-18T10:22:53.540Z,24.25
2019-05-18T10:25:14.787Z,24.43
2019-05-18T10:27:45.181Z,24.59
2019-05-18T10:30:15.954Z,24.72
2019-05-18T10:32:46.419Z,24.76
2019-05-18T10:35:17.363Z,24.54
2019-05-18T10:37:47.679Z,24.92
2019-05-18T10:40:18.492Z,24.80
2019-05-18T10:42:48.918Z,24.55
2019-05-18T10:45:19.677Z,24.20
2019-05-18T10:47:50.085Z,24.37
2019-05-18T10:50:20.522Z,24.75
2019-05-18T10:52:50.841Z,25.15
2019-05-18T10:55:21.296Z,25.46
2019-05-18T10:57:51.796Z,25.59
2019-05-18T11:00:22.185Z,24.94
2019-05-18T11:02:52.841Z,24.71
2019-05-18T11:05:24.931Z,25.07
2019-05-18T11:07:55.322Z,24.86
2019-05-18T11:10:26.412Z,25.10
2019-05-18T11:12:56.844Z,25.08
2019-05-18T11:15:27.388Z,25.22
2019-05-18T11:17:57.789Z,25.09
2019-05-18T11:20:28.313Z,25.56
2019-05-18T11:22:58.684Z,26.14
2019-05-18T11:25:29.180Z,26.45
2019-05-18T11:27:59.642Z,26.84
2019-05-18T11:30:30.141Z,27.23
2019-05-18T11:33:00.668Z,26.77
2019-05-18T11:35:31.059Z,26.65
2019-05-18T11:38:01.415Z,26.31
2019-05-18T11:40:31.834Z,26.05
2019-05-18T11:43:02.272Z,26.32
2019-05-18T11:45:33.107Z,26.88
2019-05-18T11:48:03.473Z,27.27
2019-05-18T11:50:33.935Z,27.61
2019-05-18T11:53:04.227Z,28.05
2019-05-18T11:55:34.740Z,28.14
2019-05-18T11:58:05.275Z,27.84
2019-05-18T12:00:35.780Z,27.47
2019-05-18T12:03:06.238Z,27.08
2019-05-18T12:05:36.720Z,27.50
2019-05-18T12:08:07.032Z,27.77
2019-05-18T12:10:37.489Z,28.41
2019-05-18T12:13:07.951Z,29.00
2019-05-18T12:15:38.342Z,28.79
2019-05-18T12:18:08.765Z,28.86
2019-05-18T12:20:39.380Z,28.66
2019-05-18T12:23:09.648Z,28.81
2019-05-18T12:25:40.070Z,28.83
2019-05-18T12:28:10.488Z,28.56
2019-05-18T12:30:41.022Z,28.77
2019-05-18T12:33:11.477Z,29.07
2019-05-18T12:35:41.936Z,29.26
2019-05-18T12:38:12.280Z,28.49
2019-05-18T12:40:42.616Z,27.86
2019-05-18T12:43:13.087Z,28.30
2019-05-18T12:45:43.542Z,29.53
2019-05-18T12:48:15.063Z,30.57
2019-05-18T12:50:45.485Z,31.13
2019-05-18T12:53:17.720Z,31.59
2019-05-18T12:55:48.140Z,31.35
2019-05-18T12:58:18.559Z,31.15
2019-05-18T13:00:49.001Z,31.36
2019-05-18T13:03:19.447Z,32.00
2019-05-18T13:05:49.809Z,32.19
2019-05-18T13:08:20.256Z,32.22
2019-05-18T13:10:50.635Z,31.87
2019-05-18T13:13:21.035Z,32.68
2019-05-18T13:15:51.478Z,32.37
2019-05-18T13:18:21.856Z,31.51
2019-05-18T13:20:52.337Z,30.79
2019-05-18T13:23:22.822Z,28.83
2019-05-18T13:25:53.157Z,27.91
2019-05-18T13:28:23.535Z,27.99
2019-05-18T13:30:53.957Z,28.09
2019-05-18T13:33:24.417Z,29.20
2019-05-18T13:35:54.802Z,29.19
2019-05-18T13:38:25.231Z,29.27
2019-05-18T13:40:55.699Z,29.05
2019-05-18T13:43:26.149Z,28.43
2019-05-18T13:45:56.597Z,27.67
2019-05-18T13:48:26.999Z,26.82
2019-05-18T13:50:57.488Z,26.57
2019-05-18T13:53:27.857Z,25.78
2019-05-18T13:55:58.291Z,25.46
2019-05-18T13:58:28.780Z,25.40
2019-05-18T14:00:59.294Z,25.25
2019-05-18T14:03:29.782Z,24.88
2019-05-18T14:06:00.264Z,24.98
2019-05-18T14:08:30.763Z,24.94
2019-05-18T14:11:01.135Z,24.92
2019-05-18T14:13:31.515Z,24.93
2019-05-18T14:16:01.910Z,25.03
2019-05-18T14:18:32.373Z,24.68
2019-05-18T14:21:02.808Z,24.38
2019-05-18T14:23:33.268Z,24.32
2019-05-18T14:26:03.737Z,24.27
2019-05-18T14:28:34.205Z,24.12
2019-05-18T14:31:04.654Z,24.29
2019-05-18T14:33:34.956Z,24.44
2019-05-18T14:36:05.372Z,24.11
2019-05-18T14:38:35.741Z,24.13
2019-05-18T14:41:06.226Z,24.00
2019-05-18T14:43:36.609Z,24.17
2019-05-18T14:46:07.016Z,23.98
2019-05-18T14:48:37.448Z,24.19
2019-05-18T14:51:07.789Z,24.08
2019-05-18T14:53:38.177Z,24.26
2019-05-18T14:56:08.657Z,24.05
2019-05-18T14:58:39.091Z,24.08
2019-05-18T15:01:09.501Z,24.20
2019-05-18T15:03:39.950Z,24.02
2019-05-18T15:06:10.479Z,23.92
2019-05-18T15:08:40.933Z,23.86
2019-05-18T15:11:11.378Z,24.00
2019-05-18T15:13:41.865Z,23.89
2019-05-18T15:16:12.357Z,23.82
2019-05-18T15:18:42.857Z,23.71
2019-05-18T15:21:13.268Z,23.58
2019-05-18T15:23:43.692Z,23.45
2019-05-18T15:26:14.265Z,23.47
2019-05-18T15:28:44.717Z,23.48
2019-05-18T15:31:15.153Z,23.57
2019-05-18T15:33:45.647Z,23.43
2019-05-18T15:36:16.053Z,23.59
2019-05-18T15:38:46.450Z,23.86
2019-05-18T15:41:16.980Z,24.26
2019-05-18T15:43:47.464Z,24.63
2019-05-18T15:46:17.925Z,25.07
2019-05-18T15:48:48.358Z,25.63
2019-05-18T15:51:18.767Z,25.99
2019-05-18T15:53:49.199Z,26.13
2019-05-18T15:56:19.592Z,26.28
2019-05-18T15:58:49.894Z,26.60
2019-05-18T16:01:20.273Z,26.04
2019-05-18T16:03:50.671Z,25.58
2019-05-18T16:06:21.163Z,25.92
2019-05-18T16:08:51.483Z,25.86
2019-05-18T16:11:21.890Z,25.52
2019-05-18T16:13:52.407Z,25.21
2019-05-18T16:16:41.889Z,25.05
2019-05-18T16:19:12.328Z,24.57
2019-05-18T16:21:42.651Z,24.29
2019-05-18T16:24:13.087Z,24.02
2019-05-18T16:26:43.418Z,23.75
2019-05-18T16:29:13.855Z,23.76
2019-05-18T16:31:44.176Z,23.82
2019-05-18T16:34:14.610Z,23.97
2019-05-18T16:36:45.068Z,24.31
2019-05-18T16:39:15.472Z,24.56
2019-05-18T16:41:45.896Z,25.45
2019-05-18T16:44:16.314Z,25.79
2019-05-18T16:46:46.763Z,26.21
2019-05-18T16:49:17.190Z,26.55
2019-05-18T16:51:47.520Z,26.62
2019-05-18T16:54:17.937Z,26.90
2019-05-18T16:56:48.353Z,26.93
2019-05-18T16:59:18.847Z,26.71
2019-05-18T17:01:49.275Z,26.33
2019-05-18T17:04:19.571Z,25.58
2019-05-18T17:06:50.036Z,24.85
2019-05-18T17:09:21.755Z,24.10
2019-05-18T17:11:52.238Z,23.34
2019-05-18T17:14:22.636Z,23.00
2019-05-18T17:16:53.033Z,22.75
2019-05-18T17:19:23.493Z,22.33
2019-05-18T17:21:54.274Z,22.11
2019-05-18T17:24:24.685Z,21.97
2019-05-18T17:26:55.122Z,21.94
2019-05-18T17:29:25.498Z,21.83
2019-05-18T17:31:55.940Z,21.63
2019-05-18T17:34:26.301Z,21.45
2019-05-18T17:36:56.657Z,21.25
2019-05-18T17:39:26.987Z,21.08
2019-05-18T17:41:57.435Z,20.93
2019-05-18T17:44:27.845Z,20.88
2019-05-18T17:46:58.281Z,20.76
2019-05-18T17:49:28.696Z,20.73
2019-05-18T17:51:59.177Z,20.61
2019-05-18T17:54:29.620Z,20.51
2019-05-18T17:57:07.936Z,20.37
2019-05-18T17:59:32.131Z,20.19
2019-05-18T18:02:02.601Z,19.92
2019-05-18T18:04:32.929Z,19.74
2019-05-18T18:07:03.421Z,19.48
2019-05-18T18:09:33.860Z,19.25
2019-05-18T18:12:04.341Z,19.12
2019-05-18T18:14:53.929Z,18.91
2019-05-18T18:17:24.354Z,18.78
2019-05-18T18:19:54.785Z,18.68
2019-05-18T18:22:25.282Z,18.69
2019-05-18T18:24:55.796Z,18.62
2019-05-18T18:27:29.640Z,18.56
2019-05-18T18:29:58.391Z,18.44
2019-05-18T18:32:28.862Z,18.34
2019-05-18T18:34:59.281Z,18.16
2019-05-18T18:37:29.742Z,18.12
2019-05-18T18:40:00.232Z,18.11
2019-05-18T18:42:30.717Z,18.01
2019-05-18T18:45:01.135Z,17.86
2019-05-18T18:47:31.410Z,17.72
2019-05-18T18:50:01.792Z,17.69
2019-05-18T18:52:32.206Z,17.50
2019-05-18T18:55:02.682Z,17.27
2019-05-18T18:57:41.330Z,17.16
2019-05-18T19:00:07.080Z,16.96
2019-05-18T19:02:37.490Z,16.87
2019-05-18T19:05:08.715Z,16.84
2019-05-18T19:07:39.081Z,16.87
2019-05-18T19:10:09.743Z,16.92
2019-05-18T19:12:40.180Z,16.92
2019-05-18T19:15:11.522Z,16.84
2019-05-18T19:17:41.908Z,16.77
2019-05-18T19:20:13.183Z,16.63
2019-05-18T19:22:43.558Z,16.57
2019-05-18T19:25:14.225Z,16.37
2019-05-18T19:27:54.603Z,16.30
2019-05-18T19:30:17.533Z,16.16
2019-05-18T19:32:48.026Z,16.10
2019-05-18T19:35:18.404Z,16.03
2019-05-18T19:37:48.883Z,15.94
2019-05-18T19:40:19.599Z,15.91
2019-05-18T19:42:50.004Z,15.84
2019-05-18T19:45:20.486Z,15.70
2019-05-18T19:47:50.969Z,15.64
2019-05-18T19:50:21.382Z,15.50
2019-05-18T19:52:51.803Z,15.36
2019-05-18T19:55:22.306Z,15.20
2019-05-18T19:57:52.871Z,15.10
2019-05-18T20:00:23.752Z,15.10
2019-05-18T20:02:54.118Z,15.07
2019-05-18T20:05:24.489Z,14.97
2019-05-18T20:07:54.945Z,14.94
2019-05-18T20:10:25.509Z,14.84
2019-05-18T20:12:55.980Z,14.78
2019-05-18T20:15:26.486Z,14.75
2019-05-18T20:17:57.024Z,14.64
2019-05-18T20:20:27.455Z,14.67
2019-05-18T20:22:57.868Z,14.52
2019-05-18T20:25:28.158Z,14.36
2019-05-18T20:27:58.621Z,14.30
2019-05-18T20:30:29.001Z,14.16
2019-05-18T20:32:59.721Z,14.16
2019-05-18T20:35:30.141Z,14.10
2019-05-18T20:38:00.556Z,14.03
2019-05-18T20:40:30.989Z,13.97
2019-05-18T20:43:01.457Z,14.00
2019-05-18T20:45:32.420Z,13.86
2019-05-18T20:48:02.913Z,13.82
2019-05-18T20:50:33.334Z,13.73
2019-05-18T20:53:03.667Z,13.76
2019-05-18T20:55:34.109Z,13.74
2019-05-18T20:58:04.652Z,13.74
2019-05-18T21:00:38.300Z,13.78
2019-05-18T21:03:07.222Z,13.87
2019-05-18T21:05:37.658Z,13.97
2019-05-18T21:08:08.018Z,14.06
2019-05-18T21:10:38.367Z,14.05
2019-05-18T21:13:08.719Z,14.05
2019-05-18T21:15:39.120Z,14.09
2019-05-18T21:18:09.405Z,14.12
2019-05-18T21:20:40.089Z,14.14
2019-05-18T21:23:10.546Z,14.08
2019-05-18T21:25:40.960Z,14.01
2019-05-18T21:28:11.396Z,13.98
2019-05-18T21:30:41.861Z,13.98
2019-05-18T21:33:12.313Z,13.94
2019-05-18T21:35:42.765Z,13.95
2019-05-18T21:38:13.166Z,13.94
2019-05-18T21:40:43.484Z,13.93
2019-05-18T21:43:13.928Z,13.86
2019-05-18T21:45:44.307Z,13.97
2019-05-18T21:48:14.662Z,14.02
2019-05-18T21:50:45.005Z,14.11
2019-05-18T21:53:15.362Z,14.11
2019-05-18T21:55:45.795Z,14.13
2019-05-18T21:58:16.182Z,14.18
2019-05-18T22:00:49.690Z,14.23
2019-05-18T22:03:20.125Z,14.29
2019-05-18T22:05:50.471Z,14.31
2019-05-18T22:08:20.927Z,14.35
2019-05-18T22:10:51.335Z,14.47
2019-05-18T22:13:21.770Z,14.62
2019-05-18T22:15:52.191Z,14.65
2019-05-18T22:18:24.794Z,14.60
2019-05-18T22:20:54.835Z,14.64
2019-05-18T22:23:25.120Z,14.69
2019-05-18T22:25:57.149Z,14.70
2019-05-18T22:28:27.932Z,14.73
2019-05-18T22:30:58.311Z,14.76
2019-05-18T22:33:28.727Z,14.69
2019-05-18T22:35:59.063Z,14.62
2019-05-18T22:38:29.536Z,14.62
2019-05-18T22:40:59.961Z,14.58
2019-05-18T22:43:30.361Z,14.59
2019-05-18T22:46:00.781Z,14.59
2019-05-18T22:48:40.811Z,14.65
2019-05-18T22:51:03.379Z,14.72
2019-05-18T22:53:33.821Z,14.73
2019-05-18T22:56:04.253Z,14.64
2019-05-18T22:58:34.648Z,14.65
2019-05-18T23:01:05.284Z,14.67
2019-05-18T23:03:35.740Z,14.65
2019-05-18T23:06:06.210Z,14.58
2019-05-18T23:08:36.635Z,14.49
2019-05-18T23:11:07.062Z,14.42
2019-05-18T23:13:37.528Z,14.30
2019-05-18T23:16:07.954Z,14.28
2019-05-18T23:18:38.352Z,14.26
2019-05-18T23:21:08.761Z,14.18
2019-05-18T23:23:39.217Z,14.09
2019-05-18T23:26:11.646Z,14.01
2019-05-18T23:28:41.772Z,13.90
2019-05-18T23:31:12.224Z,13.84
2019-05-18T23:33:42.691Z,13.83
2019-05-18T23:36:13.942Z,13.76
2019-05-18T23:38:44.400Z,13.57
2019-05-18T23:41:14.783Z,13.47
2019-05-18T23:43:45.211Z,13.35
2019-05-18T23:46:15.554Z,13.19
2019-05-18T23:48:45.906Z,12.97
2019-05-18T23:51:16.274Z,12.83
2019-05-18T23:53:46.662Z,12.83
2019-05-18T23:56:17.114Z,12.69
2019-05-18T23:58:47.512Z,12.64
